AirNav   SIMCOM
 
 332 users online  

16W Little Goose Lock and Dam Airport
Starbuck, Washington, USA


FAA INFORMATION EFFECTIVE 20 JULY 2017

Location

FAA Identifier: 16W
Lat/Long: 46-35-02.2000N / 118-00-12.9000W
46-35.036667N / 118-00.215000W
46.5839444 / -118.0035833
(estimated)
Elevation: 681 ft. / 207.6 m (surveyed)
Variation: 19E (1985)
From city: 7 miles NE of STARBUCK, WA
Time zone: UTC -7 (UTC -8 during Standard Time)
Zip code: 99136

Airport Operations

Airport use: Open to the public
Activation date: 02/1966
Control tower: no
ARTCC: SEATTLE CENTER
FSS: SEATTLE FLIGHT SERVICE STATION
NOTAMs facility: SEA (NOTAM-D service available)
Attendance: UNATNDD
Wind indicator: yes
Segmented circle: no

Airport Communications

CTAF: 122.9

Nearby radio navigation aids

VOR radial/distance  VOR name  Freq  Var
ALWr002/32.1WALLA WALLA VOR/DME116.4020E
PUWr240/32.6PULLMAN VOR/DME109.0020E

Airport Services

Parking: tiedowns
Airframe service: NONE
Powerplant service: NONE
Bottled oxygen: NONE
Bulk oxygen: NONE

Runway Information

Runway 7/25

Dimensions: 3400 x 50 ft. / 1036 x 15 m
Surface: gravel, in poor condition
PORTIONS OF RY SFC ROUGH AND SOFT.
GRVL DOESN'T COMPACT WELL.
RUNWAY 7  RUNWAY 25
Latitude: 46-35.038952N46-35.032942N
Longitude: 118-00.620458W117-59.809028W
Traffic pattern: leftleft
Runway heading: 072 magnetic, 091 true252 magnetic, 271 true
Obstructions: 12 ft. road, 25 ft. from runway, 2:1 slope to clear262 ft. hill, 4200 ft. from runway, 420 ft. left of centerline, 16:1 slope to clear

Airport Ownership and Management from official FAA records

Ownership: Publicly-owned
Owner: WSDOT AVIATION DIVISION
7702 TERMINAL STREET SW
TUMWATER, WA 98501-7264
Phone 800-552-0666
800 NUMBER FOR WA STATE CALLS ONLY.
Manager: G. PAUL WOLF
7702 TERMINAL STREET SW
TUMWATER, WA 98501-7264
Phone (360) 618-2477

Airport Operational Statistics

Aircraft operations: avg 25/month *
100% transient general aviation
* for 12-month period ending 31 December 2015

Additional Remarks

ARPT LCTD IN CANYON; ROLLING TERRAIN 700-800' SOUTH RISING TO 750'; CANYON WALL 800' SOUTH RISES STEEPLY TO 1800+'; NORTH WALL RISES TO 1600+'.
RY MARKED WITH REFLECTORS DURING DATES ARPT IS OPEN.
FOR ACFT ACCIDENTS/INCIDENTS CTC WA STATE EMERGENCY OPERATIONS CENTER 800-258-5990.
CTC WA STATE AVIATION DIVISION 360-709-8015 OR 1-800-552-0666 WA AREA FOR FACILITY INFO PRIOR TO USE.
PEDESTRIANS, VEHICLES, AND ANIMALS ON & INVOF RY.
DENSITY ALTITUDE.
HIGH TERRAIN SURROUNDS ARPT.
STRONG WNDS POSSIBLE INSIDE CANYON.
DO NOT LAND IF SNOW PRESENT ON RY. NO WINTER SNOW REMOVAL OPS.

Instrument Procedures

There are no published instrument procedures at 16W.

Some nearby airports with instrument procedures:

KALW - Walla Walla Regional Airport (32 nm S)
KPUW - Pullman/Moscow Regional Airport (38 nm E)
KLWS - Lewiston-Nez Perce County Airport (43 nm E)
KPSC - Tri-Cities Airport (50 nm W)
KRLD - Richland Airport (56 nm W)
 
Loc | Ops | Rwys | IFR | FBO | Links
Com | Nav | Svcs | Stats | Notes


 
Area around 16W (Little Goose Lock and Dam Airport)
 
Road maps at: MapQuest Bing Google
 
Aerial photo
WARNING: Photo may not be current or correct
Aerial photo of 16W (Little Goose Lock and Dam Airport)
Photo by David Wyatt
Photo taken 15-Jul-2007

Do you have a better or more recent aerial photo of Little Goose Lock and Dam Airport that you would like to share? If so, please send us your photo.

 
Sectional chart

 
Airport distance calculator
Flying to Little Goose Lock and Dam Airport? Find the distance to fly.

From to 16W

Sunrise and sunset
Times for 27-Jul-2017
 Local
(UTC-7)
 Zulu
(UTC)
Morning civil twilight04:5211:52
Sunrise05:2812:28
Sunset20:2903:29
Evening civil twilight21:0504:05

Current date and time
Zulu (UTC)  27-Jul-2017 09:42:21
Local (UTC-7)  27-Jul-2017 02:42:21
 
METAR
KALW 
31nm S 
270853Z AUTO 18010KT 10SM CLR 26/09 A2996 RMK AO2 SLP133 T02560094 50017
KPUW 
38nm E 
270853Z AUTO 00000KT 10SM CLR 17/07 A3002 RMK AO2 SLP147 T01670072 53001
KLWS 
43nm E 
270856Z AUTO 14005KT 10SM CLR 21/06 A2993 RMK AO2 SLP123 T02110056 53001
KPSC 
50nm W 
270853Z AUTO 20006KT 10SM CLR 25/13 A2989 RMK AO2 SLP118 T02500133 51013
TAF
KALW 
31nm S 
270520Z 2706/2806 17007KT P6SM SCT200 FM271500 21010KT P6SM SKC
KPUW 
38nm E 
270524Z 2706/2806 VRB03KT P6SM SCT080 BKN130 FM271700 26008G14KT P6SM SCT070 BKN100 FM280300 VRB03KT P6SM FEW080 FEW150
NOTAMs
Click for the latest NOTAMs
NOTAMs are issued by the DoD/FAA and will open in a separate window not controlled by AirNav.

 

 
 

Would you like to see your business listed on this page?

 If your business provides an interesting product or service to pilots, flight crews, aircraft, or users of the Little Goose Lock and Dam Airport, you should consider listing it here.  To start the listing process, click on the button below
 
Add a business
 

Other Pages about Little Goose Lock and Dam Airport

www.wsdot.wa.gov/...
 
Update a link
 
Copyright © AirNav, LLC. All rights reserved. Privacy Policy  Contact